aviador You're here:

PAKK Decoded Metar

KOYUK in AK, USA
Report Time2017-12-17 07:56:00
UTC Time2017-12-17 08:08:22
Flight Rules mvfr MVFR
Wind360° at 03 kt
W.Decomp.*RWY 01: 2.7 kt HW 1.3 kt LCW
Visibility9999 m
Phenomena:N/A
Clouds:Overcast 012 Hf
Expected CloudBase > 400 ft AGL from Temp-Dew spread
Ceiling1,200 ft
Temp-4°C (ISA -19)
Dew Point-5°C (93% RH)
AAT-7.7°C
QNH992 hPa
Density Alt-1,368 ft
Elevation154 ft
Report Wrong Elevation
Raw Report
PAKK 170756Z AUTO 36003KT 10SM OVC012 M04/M05 A2929 RMK AO2 SLP934
T10441050 FZRANO=

Extra information for PAKK:More info

Metar Taf Metar & Taf Last 4 Metars F.Rules Stats Wind Profile Meteogram Temp Stats Airport Information Weather charts Add Link Nearby VenuesMetar ALERT Operation Metar Decoded Social comments

AIRNAV info for PAKK